Time;durP1;ratioP1;P1;durP2;ratioP2;P2;SDS_P1;SDS_P2;PMS_P1;PMS_P2;Temp;Humidity;BMP_temperature;BMP_pressure;BME280_temperature;BME280_humidity;BME280_pressure;Samples;Min_cycle;Max_cycle;Signal;HPM_P1;HPM_P2
2023/01/01 00:00:38;;;;;;;33.90;27.65;;;13.40;99.90;;;;;;7366382;19;20018;-56
2023/01/01 00:03:09;;;;;;;;;;;13.40;99.90;;;;;;7369043;19;20696;-57
2023/01/01 00:05:39;;;;;;;28.15;24.00;;;13.50;99.90;;;;;;7376179;19;19945;-56
2023/01/01 00:08:06;;;;;;;33.00;25.15;;;13.40;99.90;;;;;;7374546;19;20015;-56
2023/01/01 00:10:34;;;;;;;36.30;24.48;;;13.30;99.90;;;;;;7375217;19;20657;-57
2023/01/01 00:13:00;;;;;;;32.33;25.30;;;13.40;99.90;;;;;;7373232;19;20508;-56
2023/01/01 00:15:27;;;;;;;33.30;25.77;;;13.30;99.90;;;;;;7374633;19;20029;-57
2023/01/01 00:17:53;;;;;;;34.80;27.67;;;13.30;99.90;;;;;;7375271;19;20106;-59
2023/01/01 00:20:20;;;;;;;30.20;24.88;;;13.30;99.90;;;;;;7372617;19;20737;-57
2023/01/01 00:22:46;;;;;;;32.60;25.98;;;13.40;99.90;;;;;;7375153;19;20051;-56
2023/01/01 00:25:13;;;;;;;29.20;23.65;;;13.30;99.90;;;;;;7375230;19;20037;-56
2023/01/01 00:27:41;;;;;;;34.88;27.23;;;13.20;99.90;;;;;;7373080;19;20379;-56
2023/01/01 00:30:08;;;;;;;34.47;25.60;;;13.10;99.90;;;;;;7369331;19;20509;-60
2023/01/01 00:32:35;;;;;;;33.90;23.35;;;13.00;99.90;;;;;;7372859;19;20011;-60
2023/01/01 00:35:01;;;;;;;27.52;22.83;;;13.10;99.90;;;;;;7373199;19;20457;-60
2023/01/01 00:37:28;;;;;;;35.17;23.48;;;13.00;99.90;;;;;;7373178;19;20058;-60
2023/01/01 00:39:54;;;;;;;28.50;22.35;;;13.10;99.90;;;;;;7368246;19;20033;-61
2023/01/01 00:42:21;;;;;;;28.55;19.10;;;13.10;99.90;;;;;;7370992;19;20452;-60
2023/01/01 00:44:47;;;;;;;26.70;17.95;;;13.30;99.90;;;;;;7373123;19;20445;-61
2023/01/01 00:48:16;;;;;;;26.90;16.63;;;13.30;99.90;;;;;;7371434;19;20063;-61
2023/01/01 00:50:42;;;;;;;20.75;16.00;;;13.30;99.90;;;;;;7366054;19;20022;-61
2023/01/01 00:53:08;;;;;;;22.55;16.70;;;13.40;99.90;;;;;;7373389;19;20026;-61
2023/01/01 00:55:50;;;;;;;26.92;17.27;;;13.50;99.90;;;;;;7372029;19;20018;-61
2023/01/01 00:58:35;;;;;;;25.02;16.67;;;13.60;99.90;;;;;;7373439;19;20429;-61
2023/01/01 01:01:03;;;;;;;24.15;16.27;;;13.60;99.90;;;;;;7368492;19;20038;-62
2023/01/01 01:03:39;;;;;;;20.30;16.45;;;13.80;99.90;;;;;;7371641;19;20024;-61
2023/01/01 01:06:11;;;;;;;30.25;17.13;;;13.90;99.90;;;;;;7373773;19;20857;-61
2023/01/01 01:08:38;;;;;;;;;;;13.90;99.90;;;;;;7370648;19;20018;-61
2023/01/01 01:11:16;;;;;;;24.77;17.35;;;13.90;99.90;;;;;;7362260;19;19936;-57
2023/01/01 01:13:47;;;;;;;26.38;18.42;;;14.00;99.90;;;;;;7365884;19;20018;-58
2023/01/01 01:16:19;;;;;;;21.50;17.85;;;13.90;99.90;;;;;;7366268;19;20082;-55
2023/01/01 01:18:48;;;;;;;29.38;18.20;;;13.90;99.90;;;;;;7372263;19;20047;-55
2023/01/01 01:21:17;;;;;;;25.50;18.20;;;13.90;99.90;;;;;;7364156;19;20464;-61
2023/01/01 01:23:43;;;;;;;21.40;16.98;;;14.00;99.90;;;;;;7367436;19;20473;-61
2023/01/01 01:26:16;;;;;;;26.60;18.95;;;14.00;99.90;;;;;;7373837;19;20631;-61
2023/01/01 01:28:43;;;;;;;26.80;17.17;;;14.00;99.90;;;;;;7368566;19;20402;-56
2023/01/01 01:31:10;;;;;;;24.92;18.38;;;14.00;99.90;;;;;;7371377;19;20035;-55
2023/01/01 01:33:36;;;;;;;25.48;17.48;;;14.00;99.90;;;;;;7368288;19;20015;-55
2023/01/01 01:36:04;;;;;;;25.63;18.05;;;14.00;99.90;;;;;;7363473;19;20026;-60
2023/01/01 01:57:08;;;;;;;27.00;17.73;;;13.90;99.90;;;;;;7398785;19;20267;-54
2023/01/01 01:59:40;;;;;;;23.95;17.15;;;13.60;99.90;;;;;;7408995;19;20010;-54
2023/01/01 02:02:14;;;;;;;28.40;18.63;;;13.70;99.90;;;;;;7405530;19;20025;-55
2023/01/01 02:04:41;;;;;;;28.92;18.55;;;13.60;99.90;;;;;;7406422;19;20499;-60
2023/01/01 02:07:10;;;;;;;23.48;17.67;;;13.50;99.90;;;;;;7397433;19;20022;-59
2023/01/01 02:09:37;;;;;;;22.88;17.70;;;13.50;99.90;;;;;;7408540;19;20367;-59
2023/01/01 02:12:03;;;;;;;25.30;18.50;;;13.50;99.90;;;;;;7403451;19;20034;-54
2023/01/01 02:14:32;;;;;;;26.40;19.27;;;13.60;99.90;;;;;;7399897;19;20349;-54
2023/01/01 02:17:26;;;;;;;26.52;18.63;;;13.60;99.90;;;;;;7407481;19;20052;-54
2023/01/01 02:19:55;;;;;;;29.83;19.10;;;13.60;99.90;;;;;;7407026;19;20364;-59
2023/01/01 02:22:59;;;;;;;19.58;14.18;;;13.70;99.90;;;;;;7404351;19;20022;-59
2023/01/01 02:25:38;;;;;;;22.05;16.52;;;13.90;99.90;;;;;;7404961;19;20501;-60
2023/01/01 02:28:29;;;;;;;25.67;16.20;;;13.90;99.90;;;;;;7404317;19;20104;-60
2023/01/01 02:30:57;;;;;;;25.10;16.70;;;14.00;99.90;;;;;;7405192;19;20376;-60
2023/01/01 02:33:25;;;;;;;18.15;12.40;;;14.00;99.90;;;;;;7402552;19;20291;-60
2023/01/01 02:36:01;;;;;;;23.63;13.23;;;14.10;99.90;;;;;;7404716;19;20014;-60
2023/01/01 02:38:45;;;;;;;23.75;14.52;;;14.10;99.90;;;;;;7402806;19;20026;-59
2023/01/01 02:41:28;;;;;;;26.00;15.70;;;14.00;99.90;;;;;;7403472;19;20018;-59
2023/01/01 02:43:55;;;;;;;23.65;13.57;;;14.00;99.90;;;;;;7401703;19;20508;-60
2023/01/01 02:46:22;;;;;;;19.65;12.63;;;14.00;99.90;;;;;;7407405;19;20018;-53
2023/01/01 02:48:50;;;;;;;19.02;11.60;;;14.00;99.90;;;;;;7402403;19;20703;-53
2023/01/01 02:51:20;;;;;;;22.15;11.40;;;14.00;99.90;;;;;;7400796;19;20430;-54
2023/01/01 02:53:52;;;;;;;19.63;12.98;;;14.00;99.90;;;;;;7400498;19;20010;-54
2023/01/01 02:56:42;;;;;;;19.58;11.40;;;14.00;99.90;;;;;;7407224;19;20029;-59
2023/01/01 03:02:19;;;;;;;15.68;9.25;;;14.00;99.90;;;;;;7392610;19;20014;-59
2023/01/01 03:04:51;;;;;;;16.90;9.00;;;14.00;99.90;;;;;;7377024;19;20018;-59
2023/01/01 03:07:56;;;;;;;13.40;8.85;;;14.10;99.90;;;;;;7373961;19;20021;-60
2023/01/01 03:10:44;;;;;;;14.38;7.60;;;14.10;99.90;;;;;;7367666;19;20019;-60
2023/01/01 03:13:40;;;;;;;14.13;6.80;;;14.20;99.90;;;;;;7372342;19;20014;-59
2023/01/01 03:16:17;;;;;;;14.80;6.72;;;14.20;99.90;;;;;;7369881;19;20018;-56
2023/01/01 03:19:09;;;;;;;11.23;5.13;;;14.20;99.90;;;;;;7376105;19;20518;-54
2023/01/01 03:22:18;;;;;;;14.10;5.63;;;14.40;99.90;;;;;;7375731;19;20034;-55
2023/01/01 03:25:19;;;;;;;8.55;4.60;;;14.40;99.90;;;;;;7371635;19;20023;-54
2023/01/01 03:27:51;;;;;;;10.75;4.63;;;14.50;99.90;;;;;;7374880;19;20567;-59
2023/01/01 03:30:19;;;;;;;9.18;3.85;;;14.60;99.90;;;;;;7375037;19;20579;-59
2023/01/01 03:33:00;;;;;;;10.60;5.18;;;14.60;99.90;;;;;;7377311;19;20067;-59
2023/01/01 03:35:56;;;;;;;11.85;4.18;;;14.50;99.90;;;;;;7377311;19;20689;-59
2023/01/01 03:38:26;;;;;;;11.38;5.18;;;14.60;99.90;;;;;;7372976;19;20381;-54
2023/01/01 03:41:00;;;;;;;11.45;4.68;;;14.60;99.90;;;;;;7378897;19;20090;-59
2023/01/01 03:43:51;;;;;;;11.13;4.55;;;14.60;99.90;;;;;;7374029;19;20043;-59
2023/01/01 03:46:25;;;;;;;9.93;3.70;;;14.60;99.90;;;;;;7372769;19;21129;-53
2023/01/01 03:48:55;;;;;;;10.85;3.70;;;14.70;99.90;;;;;;7372470;19;20022;-59
2023/01/01 03:51:44;;;;;;;10.05;3.92;;;14.70;99.90;;;;;;7372252;19;20085;-55
2023/01/01 03:54:43;;;;;;;8.65;3.97;;;14.70;99.90;;;;;;7371775;19;20491;-55
2023/01/01 03:57:21;;;;;;;10.27;3.25;;;14.80;99.90;;;;;;7374365;19;20025;-54
2023/01/01 03:59:57;;;;;;;12.02;3.45;;;14.70;99.90;;;;;;7376635;19;20044;-54
2023/01/01 04:02:29;;;;;;;8.10;3.38;;;14.70;99.90;;;;;;7375112;19;20020;-54
2023/01/01 04:05:00;;;;;;;10.80;3.47;;;14.80;99.90;;;;;;7375923;19;20487;-55
2023/01/01 04:07:30;;;;;;;8.75;3.10;;;14.70;99.90;;;;;;7375699;19;20022;-54
2023/01/01 04:09:59;;;;;;;9.75;2.95;;;14.80;99.90;;;;;;7377126;19;20876;-54
2023/01/01 04:12:28;;;;;;;10.30;3.67;;;14.70;99.90;;;;;;7373684;19;20018;-54
2023/01/01 04:14:54;;;;;;;9.43;2.83;;;14.70;99.90;;;;;;7368849;19;20488;-54
2023/01/01 04:17:21;;;;;;;12.00;3.22;;;14.80;99.90;;;;;;7373738;19;20775;-52
2023/01/01 04:19:47;;;;;;;11.82;3.03;;;14.70;99.90;;;;;;7369962;19;20014;-55
2023/01/01 04:22:13;;;;;;;13.07;4.18;;;14.70;99.90;;;;;;7374376;19;20015;-55
2023/01/01 04:24:40;;;;;;;9.55;3.17;;;14.80;99.90;;;;;;7373391;19;20602;-59
2023/01/01 04:27:07;;;;;;;12.00;2.95;;;14.80;99.90;;;;;;7370029;19;20465;-53
2023/01/01 04:29:34;;;;;;;11.13;3.40;;;14.70;99.90;;;;;;7373859;19;20389;-54
2023/01/01 04:32:00;;;;;;;13.82;3.38;;;14.80;99.90;;;;;;7362771;19;20018;-55
2023/01/01 04:34:29;;;;;;;10.27;2.70;;;14.70;99.90;;;;;;7368793;19;20040;-54
2023/01/01 04:36:55;;;;;;;8.75;3.10;;;14.70;99.90;;;;;;7371580;19;20420;-55
2023/01/01 04:39:22;;;;;;;8.45;3.35;;;14.80;99.90;;;;;;7374457;19;20488;-55
2023/01/01 04:41:48;;;;;;;9.90;2.88;;;14.70;99.90;;;;;;7370568;19;20022;-55
2023/01/01 04:44:15;;;;;;;9.60;3.30;;;14.70;99.90;;;;;;7371090;19;20022;-55
2023/01/01 04:46:41;;;;;;;11.90;3.40;;;14.50;99.90;;;;;;7370886;19;20299;-54
2023/01/01 04:49:07;;;;;;;9.73;2.85;;;14.40;99.90;;;;;;7371978;19;20041;-58
2023/01/01 04:51:34;;;;;;;8.77;3.00;;;14.40;99.90;;;;;;7367327;19;20078;-59
2023/01/01 04:54:01;;;;;;;9.98;2.83;;;14.40;99.90;;;;;;7373263;19;20090;-59
2023/01/01 04:56:27;;;;;;;9.38;2.72;;;14.50;99.90;;;;;;7371020;19;20385;-59
2023/01/01 04:58:56;;;;;;;10.63;2.78;;;14.50;99.90;;;;;;7374363;19;20014;-58
2023/01/01 05:01:26;;;;;;;11.70;2.42;;;14.50;99.90;;;;;;7372926;19;20401;-59
2023/01/01 05:03:54;;;;;;;8.32;2.50;;;14.50;99.90;;;;;;7371399;19;20097;-55
2023/01/01 05:06:21;;;;;;;9.52;2.95;;;14.40;99.90;;;;;;7369798;19;20037;-59
2023/01/01 05:08:49;;;;;;;8.93;2.67;;;14.50;99.90;;;;;;7374112;19;20364;-59
2023/01/01 05:11:19;;;;;;;8.10;2.20;;;14.40;99.90;;;;;;7371454;19;20575;-59
2023/01/01 05:13:47;;;;;;;8.73;2.65;;;14.50;99.90;;;;;;7369475;19;20104;-59
2023/01/01 05:16:16;;;;;;;10.48;2.47;;;14.40;99.90;;;;;;7374303;19;20018;-59
2023/01/01 05:18:44;;;;;;;8.13;2.25;;;14.30;99.90;;;;;;7370100;19;20481;-59
2023/01/01 05:21:17;;;;;;;6.95;2.25;;;14.40;99.90;;;;;;7373409;19;20019;-55
2023/01/01 05:23:43;;;;;;;9.05;2.22;;;14.30;99.90;;;;;;7370683;19;20556;-55
2023/01/01 05:26:20;;;;;;;7.03;2.58;;;14.30;99.90;;;;;;7367146;19;20026;-55
2023/01/01 05:28:47;;;;;;;7.82;2.05;;;14.30;99.90;;;;;;7370424;19;20033;-55
2023/01/01 05:31:18;;;;;;;6.38;1.88;;;14.20;99.90;;;;;;7365296;19;20018;-58
2023/01/01 05:33:48;;;;;;;8.93;2.10;;;14.20;99.90;;;;;;7370677;19;20014;-61
2023/01/01 05:36:17;;;;;;;10.05;2.50;;;14.20;99.90;;;;;;7368713;19;20473;-59
2023/01/01 05:38:43;;;;;;;8.50;2.50;;;14.10;99.90;;;;;;7372326;19;20022;-59
2023/01/01 05:41:13;;;;;;;7.38;2.03;;;14.10;99.90;;;;;;7369709;19;20025;-59
2023/01/01 05:43:40;;;;;;;7.80;1.83;;;14.10;99.90;;;;;;7370006;19;20025;-59
2023/01/01 05:46:10;;;;;;;5.65;2.00;;;14.00;99.90;;;;;;7367777;19;20400;-55
2023/01/01 05:48:37;;;;;;;2.70;1.23;;;14.00;99.90;;;;;;7372945;19;20014;-55
2023/01/01 05:51:12;;;;;;;5.25;1.60;;;14.00;99.90;;;;;;7369531;19;20021;-54
2023/01/01 05:53:39;;;;;;;7.22;2.08;;;13.90;99.90;;;;;;7372310;19;20018;-59
2023/01/01 05:56:06;;;;;;;6.15;1.80;;;13.90;99.90;;;;;;7366819;19;20496;-59
2023/01/01 05:58:34;;;;;;;7.70;1.58;;;13.90;99.90;;;;;;7370536;19;20105;-59
2023/01/01 06:01:12;;;;;;;7.75;1.52;;;13.80;99.90;;;;;;7367314;19;20035;-59
2023/01/01 06:03:40;;;;;;;10.02;2.35;;;13.80;99.90;;;;;;7369738;19;20401;-59
2023/01/01 06:06:10;;;;;;;9.00;1.65;;;13.70;99.90;;;;;;7371606;19;20018;-59
2023/01/01 06:08:37;;;;;;;4.55;1.70;;;13.70;99.90;;;;;;7371026;19;20771;-59
2023/01/01 06:11:07;;;;;;;3.97;1.80;;;13.70;99.90;;;;;;7368638;19;20623;-58
2023/01/01 06:13:37;;;;;;;7.25;1.70;;;13.60;99.90;;;;;;7367879;19;20687;-59
2023/01/01 06:16:04;;;;;;;7.57;1.35;;;13.60;99.90;;;;;;7368733;19;21194;-58
2023/01/01 06:18:32;;;;;;;5.93;1.73;;;13.60;99.90;;;;;;7369954;19;20014;-59
2023/01/01 06:21:13;;;;;;;5.57;1.50;;;13.60;99.90;;;;;;7373538;19;20038;-59
2023/01/01 06:23:40;;;;;;;7.60;1.53;;;13.60;99.90;;;;;;7369789;19;20055;-59
2023/01/01 06:26:10;;;;;;;6.20;1.88;;;13.60;99.90;;;;;;7372674;19;20485;-59
2023/01/01 06:28:42;;;;;;;4.90;1.42;;;13.60;99.90;;;;;;7373221;19;20333;-59
2023/01/01 06:31:11;;;;;;;2.65;1.23;;;13.50;99.90;;;;;;7370392;19;20582;-59
2023/01/01 06:33:39;;;;;;;6.70;1.88;;;13.50;99.90;;;;;;7371250;19;20098;-59
2023/01/01 06:36:08;;;;;;;6.07;1.75;;;13.40;99.90;;;;;;7363041;19;20584;-59
2023/01/01 06:38:38;;;;;;;7.13;1.85;;;13.40;99.90;;;;;;7369887;19;20105;-58
2023/01/01 06:41:10;;;;;;;4.30;1.33;;;13.40;99.90;;;;;;7376932;19;20358;-58
2023/01/01 06:43:38;;;;;;;8.18;1.90;;;13.30;99.90;;;;;;7372580;19;20015;-59
2023/01/01 06:46:19;;;;;;;6.03;1.95;;;13.40;99.90;;;;;;7376730;19;20018;-59
2023/01/01 06:48:47;;;;;;;5.78;2.20;;;13.40;99.90;;;;;;7375429;19;20018;-58
2023/01/01 06:51:16;;;;;;;6.57;1.90;;;13.40;99.90;;;;;;7372560;19;20106;-59
2023/01/01 06:53:42;;;;;;;7.40;2.22;;;13.30;99.90;;;;;;7378449;19;20038;-55
2023/01/01 06:56:09;;;;;;;6.05;1.83;;;13.20;99.90;;;;;;7375512;19;20048;-53
2023/01/01 06:58:35;;;;;;;7.20;1.92;;;13.20;99.90;;;;;;7372769;19;20109;-53
2023/01/01 07:01:08;;;;;;;7.93;1.90;;;13.10;99.90;;;;;;7371249;19;20018;-54
2023/01/01 07:03:35;;;;;;;8.70;2.13;;;13.10;99.90;;;;;;7370245;19;20027;-54
2023/01/01 07:06:01;;;;;;;10.48;2.58;;;13.20;99.90;;;;;;7375162;19;20018;-54
2023/01/01 07:08:28;;;;;;;7.63;1.95;;;13.00;99.90;;;;;;7377396;19;20450;-54
2023/01/01 07:10:56;;;;;;;8.52;2.72;;;13.00;99.90;;;;;;7374894;19;20029;-58
2023/01/01 07:13:23;;;;;;;9.07;1.80;;;13.10;99.90;;;;;;7374746;19;20093;-55
2023/01/01 07:15:50;;;;;;;12.10;2.63;;;13.00;99.90;;;;;;7372064;19;20133;-55
2023/01/01 07:18:18;;;;;;;8.55;2.40;;;13.00;99.90;;;;;;7376161;19;20555;-53
2023/01/01 07:21:05;;;;;;;7.43;1.83;;;13.00;99.90;;;;;;7375679;19;20106;-56
2023/01/01 07:23:34;;;;;;;10.02;1.98;;;13.00;99.90;;;;;;7376153;19;20022;-54
2023/01/01 07:26:00;;;;;;;10.10;2.30;;;13.00;99.90;;;;;;7372756;19;20022;-55
2023/01/01 07:28:27;;;;;;;6.57;1.80;;;13.00;99.90;;;;;;7372430;19;20018;-54
2023/01/01 07:30:58;;;;;;;7.97;2.10;;;12.90;99.90;;;;;;7372555;19;20393;-54
2023/01/01 07:33:24;;;;;;;8.15;1.90;;;12.90;99.90;;;;;;7377118;19;20040;-54
2023/01/01 07:35:51;;;;;;;12.40;2.05;;;12.90;99.90;;;;;;7372726;19;20014;-54
2023/01/01 07:38:17;;;;;;;7.47;2.60;;;12.90;99.90;;;;;;7371395;19;20018;-58
2023/01/01 07:40:43;;;;;;;6.20;1.88;;;12.90;99.90;;;;;;7372817;19;20019;-59
2023/01/01 07:43:11;;;;;;;10.57;1.85;;;12.90;99.90;;;;;;7369328;19;20022;-58
2023/01/01 07:45:41;;;;;;;9.80;2.35;;;12.90;99.90;;;;;;7376055;19;20022;-58
2023/01/01 07:48:14;;;;;;;9.07;2.45;;;12.90;99.90;;;;;;7372757;19;20392;-55
2023/01/01 07:50:42;;;;;;;9.55;1.98;;;12.80;99.90;;;;;;7370775;19;20022;-54
2023/01/01 07:53:09;;;;;;;6.47;2.55;;;12.80;99.90;;;;;;7371224;19;20018;-58
2023/01/01 07:55:35;;;;;;;8.68;1.80;;;12.80;99.90;;;;;;7374688;19;20826;-55
2023/01/01 07:58:02;;;;;;;11.73;1.67;;;12.80;99.90;;;;;;7377581;19;20011;-58
2023/01/01 08:00:28;;;;;;;18.08;3.30;;;12.80;99.90;;;;;;7374913;19;20022;-59
2023/01/01 08:03:04;;;;;;;7.47;1.92;;;12.70;99.90;;;;;;7373737;19;20505;-58
2023/01/01 08:05:34;;;;;;;11.73;2.60;;;12.70;99.90;;;;;;7374147;19;20407;-58
2023/01/01 08:08:00;;;;;;;10.65;2.00;;;12.70;99.90;;;;;;7370482;19;20450;-54
2023/01/01 08:10:28;;;;;;;10.07;1.83;;;12.70;99.90;;;;;;7372346;19;20064;-57
2023/01/01 08:13:05;;;;;;;9.23;2.00;;;12.70;99.90;;;;;;7373198;19;20503;-58
2023/01/01 08:15:33;;;;;;;11.18;2.20;;;12.70;99.90;;;;;;7375309;19;20034;-59
2023/01/01 08:18:01;;;;;;;9.70;2.60;;;12.70;99.90;;;;;;7371277;19;20019;-58
2023/01/01 08:20:29;;;;;;;7.70;2.30;;;12.70;99.90;;;;;;7373886;19;20385;-58
2023/01/01 08:22:56;;;;;;;10.23;2.15;;;12.60;99.90;;;;;;7375485;19;20560;-58
2023/01/01 08:25:22;;;;;;;7.40;2.38;;;12.60;99.90;;;;;;7372919;19;20015;-58
2023/01/01 08:27:49;;;;;;;11.93;2.17;;;12.60;99.90;;;;;;7372651;19;20357;-58
2023/01/01 08:30:15;;;;;;;11.23;2.67;;;12.60;99.90;;;;;;7366826;19;20015;-58
2023/01/01 08:32:42;;;;;;;10.20;2.97;;;12.60;99.90;;;;;;7371174;19;20457;-59
2023/01/01 08:35:08;;;;;;;11.00;2.22;;;12.60;99.90;;;;;;7370782;19;20022;-59
2023/01/01 08:37:36;;;;;;;16.85;2.65;;;12.60;99.90;;;;;;7372237;19;20018;-54
2023/01/01 08:40:15;;;;;;;4.95;1.92;;;12.60;99.90;;;;;;7371377;19;20086;-54
2023/01/01 08:42:41;;;;;;;11.05;4.10;;;12.60;99.90;;;;;;7370626;19;20021;-56
2023/01/01 08:45:08;;;;;;;7.15;1.95;;;12.50;99.90;;;;;;7372119;19;20036;-54
2023/01/01 08:47:37;;;;;;;10.73;2.33;;;12.50;99.90;;;;;;7373689;19;20044;-55
2023/01/01 08:50:05;;;;;;;9.45;2.35;;;12.50;99.90;;;;;;7374041;19;20032;-55
2023/01/01 08:52:44;;;;;;;13.02;2.72;;;12.50;99.90;;;;;;7375041;19;20018;-55
2023/01/01 08:55:11;;;;;;;10.88;2.38;;;12.50;99.90;;;;;;7376019;19;20385;-55
2023/01/01 08:57:37;;;;;;;12.15;2.85;;;12.50;99.90;;;;;;7373506;19;20026;-55
2023/01/01 09:00:04;;;;;;;13.20;2.20;;;12.50;99.90;;;;;;7371684;19;20052;-54
2023/01/01 09:02:31;;;;;;;10.93;2.60;;;12.60;99.90;;;;;;7373061;19;20022;-54
2023/01/01 09:04:57;;;;;;;16.17;3.65;;;12.50;99.90;;;;;;7372923;19;20029;-55
2023/01/01 09:07:23;;;;;;;11.90;2.55;;;12.50;99.90;;;;;;7375078;19;20022;-54
2023/01/01 09:09:49;;;;;;;11.88;2.60;;;12.50;99.90;;;;;;7370963;19;20477;-54
2023/01/01 09:12:17;;;;;;;12.45;1.92;;;12.50;99.90;;;;;;7369059;19;20022;-55
2023/01/01 09:14:46;;;;;;;11.70;2.92;;;12.50;99.90;;;;;;7369332;19;20022;-55
2023/01/01 09:17:13;;;;;;;11.48;3.35;;;12.50;99.90;;;;;;7370900;19;20026;-55
2023/01/01 09:19:39;;;;;;;16.13;3.25;;;12.50;99.90;;;;;;7369879;19;20022;-51
2023/01/01 09:22:10;;;;;;;12.45;2.65;;;12.50;99.90;;;;;;7371158;19;20026;-55
2023/01/01 09:24:36;;;;;;;9.33;2.40;;;12.50;99.90;;;;;;7370167;19;20014;-55
2023/01/01 09:27:03;;;;;;;10.18;1.92;;;12.50;99.90;;;;;;7369405;19;20266;-54
2023/01/01 09:29:33;;;;;;;10.35;2.30;;;12.50;99.90;;;;;;7372277;19;20018;-51
2023/01/01 09:31:59;;;;;;;11.88;2.67;;;12.50;99.90;;;;;;7365662;19;20047;-52
2023/01/01 09:34:26;;;;;;;9.32;2.13;;;12.50;99.90;;;;;;7369113;19;20500;-59
2023/01/01 09:36:52;;;;;;;11.82;3.40;;;12.60;99.90;;;;;;7369842;19;20031;-58
2023/01/01 09:39:18;;;;;;;9.18;2.45;;;12.60;99.90;;;;;;7371522;19;20043;-57
2023/01/01 09:42:00;;;;;;;9.85;2.97;;;12.60;99.90;;;;;;7371334;19;20014;-58
2023/01/01 09:45:03;;;;;;;16.48;3.35;;;12.60;99.90;;;;;;7369336;19;20023;-58
2023/01/01 09:47:30;;;;;;;12.05;2.72;;;12.70;99.90;;;;;;7369841;19;20512;-58
2023/01/01 09:50:21;;;;;;;12.23;3.22;;;12.70;99.90;;;;;;7367510;19;20039;-58
2023/01/01 09:52:59;;;;;;;9.77;2.38;;;12.70;99.90;;;;;;7367615;19;20407;-57
2023/01/01 09:55:33;;;;;;;15.10;2.60;;;12.70;99.90;;;;;;7362411;19;20023;-58
2023/01/01 09:57:59;;;;;;;14.52;2.72;;;12.70;99.90;;;;;;7368644;19;20029;-58
2023/01/01 10:00:31;;;;;;;16.17;2.38;;;12.70;99.90;;;;;;7367914;19;20019;-58
2023/01/01 10:03:20;;;;;;;11.95;3.03;;;12.60;99.90;;;;;;7370324;19;20031;-59
2023/01/01 10:06:19;;;;;;;11.27;2.60;;;12.60;99.90;;;;;;7367702;19;20022;-61
2023/01/01 10:09:19;;;;;;;12.95;3.17;;;12.60;99.90;;;;;;7368525;19;20017;-58
2023/01/01 10:12:04;;;;;;;10.57;2.47;;;12.60;99.90;;;;;;7370390;19;20022;-58
2023/01/01 10:14:54;;;;;;;12.23;2.42;;;12.60;99.90;;;;;;7370966;19;20021;-58
2023/01/01 10:17:39;;;;;;;9.82;2.10;;;12.60;99.90;;;;;;7377310;19;20094;-59
2023/01/01 10:20:26;;;;;;;14.07;2.40;;;12.60;99.90;;;;;;7376516;19;20019;-58
2023/01/01 10:22:58;;;;;;;7.88;1.83;;;12.60;99.90;;;;;;7376913;19;20040;-58
2023/01/01 10:25:25;;;;;;;;;;;12.60;99.90;;;;;;7376347;19;20018;-58
2023/01/01 10:27:59;;;;;;;14.05;2.40;;;12.80;99.90;;;;;;7374267;19;19929;-58
2023/01/01 10:30:27;;;;;;;16.35;2.50;;;13.00;99.90;;;;;;7373693;19;20025;-58
2023/01/01 10:32:55;;;;;;;13.90;2.50;;;13.10;99.90;;;;;;7373852;19;20591;-59
2023/01/01 10:35:32;;;;;;;11.70;2.25;;;13.40;99.90;;;;;;7375899;19;20360;-58
2023/01/01 10:38:00;;;;;;;8.23;2.20;;;13.50;99.90;;;;;;7375470;19;20010;-58
2023/01/01 10:40:28;;;;;;;9.45;2.05;;;13.40;99.90;;;;;;7376465;19;20047;-61
2023/01/01 10:42:56;;;;;;;7.85;1.85;;;13.40;99.90;;;;;;7374833;19;20019;-59
2023/01/01 10:45:33;;;;;;;11.52;2.65;;;13.40;99.90;;;;;;7374650;19;20505;-58
2023/01/01 10:48:13;;;;;;;8.60;2.25;;;13.40;99.90;;;;;;7379248;19;20022;-58
2023/01/01 10:50:46;;;;;;;8.38;1.85;;;13.40;99.90;;;;;;7377093;19;20048;-59
2023/01/01 10:53:27;;;;;;;15.32;2.90;;;13.30;99.90;;;;;;7370492;19;20497;-58
2023/01/01 10:56:04;;;;;;;10.18;2.03;;;13.40;99.90;;;;;;7380027;19;20045;-58
2023/01/01 10:58:50;;;;;;;13.18;2.33;;;13.50;99.90;;;;;;7375623;19;20645;-58
2023/01/01 11:01:17;;;;;;;13.65;2.50;;;13.70;99.90;;;;;;7377983;19;20125;-58
2023/01/01 11:04:16;;;;;;;13.75;2.85;;;13.80;99.90;;;;;;7371375;19;20030;-59
2023/01/01 11:06:46;;;;;;;12.70;2.45;;;13.70;99.90;;;;;;7376192;19;20559;-59
2023/01/01 11:09:21;;;;;;;13.05;2.50;;;13.70;99.90;;;;;;7380103;19;20403;-58
2023/01/01 11:11:57;;;;;;;9.85;2.13;;;13.70;99.90;;;;;;7374573;19;20022;-59
2023/01/01 11:15:02;;;;;;;15.30;2.53;;;13.70;99.90;;;;;;7371652;19;20022;-52
2023/01/01 11:17:31;;;;;;;13.18;2.85;;;13.70;99.90;;;;;;7374061;19;20014;-59
2023/01/01 11:19:59;;;;;;;13.32;2.15;;;13.60;99.90;;;;;;7378477;19;20021;-58
2023/01/01 11:22:36;;;;;;;11.35;2.70;;;13.40;99.90;;;;;;7378184;19;20048;-58
2023/01/01 11:25:15;;;;;;;12.80;2.97;;;13.40;99.90;;;;;;7374226;19;20621;-58
2023/01/01 11:27:41;;;;;;;13.45;2.75;;;13.40;99.90;;;;;;7374749;19;20025;-58
2023/01/01 11:30:27;;;;;;;11.18;2.55;;;13.50;99.90;;;;;;7376993;19;20022;-59
2023/01/01 11:32:59;;;;;;;13.93;2.47;;;13.50;99.90;;;;;;7376205;19;20022;-51
2023/01/01 11:35:29;;;;;;;10.77;2.38;;;13.50;99.90;;;;;;7375470;19;20591;-52
2023/01/01 11:37:58;;;;;;;16.85;4.20;;;13.40;99.90;;;;;;7375486;19;20450;-53
2023/01/01 11:40:44;;;;;;;12.20;2.67;;;13.40;99.90;;;;;;7376983;19;20390;-59
2023/01/01 11:43:20;;;;;;;12.45;3.10;;;13.40;99.90;;;;;;7375361;19;20026;-58
2023/01/01 11:45:48;;;;;;;10.07;2.45;;;13.40;99.90;;;;;;7375666;19;20104;-59
2023/01/01 11:48:30;;;;;;;13.35;2.53;;;13.40;99.90;;;;;;7371503;19;20568;-59
2023/01/01 11:51:00;;;;;;;11.73;3.05;;;13.40;99.90;;;;;;7374477;19;20029;-59
2023/01/01 11:53:30;;;;;;;14.95;3.10;;;13.40;99.90;;;;;;7368752;19;20014;-59
2023/01/01 11:56:19;;;;;;;12.10;2.65;;;13.50;99.90;;;;;;7374947;19;20022;-59
2023/01/01 11:59:04;;;;;;;16.52;3.10;;;13.50;99.90;;;;;;7375338;19;20082;-59
2023/01/01 12:01:53;;;;;;;14.90;3.08;;;13.60;99.90;;;;;;7372180;19;20041;-58
2023/01/01 12:04:38;;;;;;;11.32;2.85;;;13.60;99.90;;;;;;7374480;19;20041;-59
2023/01/01 12:07:04;;;;;;;13.80;3.40;;;14.00;99.90;;;;;;7376547;19;20024;-59
2023/01/01 12:09:50;;;;;;;20.35;8.82;;;14.00;99.90;;;;;;7371706;19;20477;-59
2023/01/01 12:12:28;;;;;;;12.90;2.63;;;14.10;99.90;;;;;;7369424;19;20537;-52
2023/01/01 12:14:58;;;;;;;13.80;2.65;;;14.10;99.90;;;;;;7363909;19;20121;-51
2023/01/01 12:17:38;;;;;;;12.90;2.70;;;13.80;99.90;;;;;;7371656;19;20022;-52
2023/01/01 12:20:24;;;;;;;10.90;2.53;;;13.60;99.90;;;;;;7371806;19;20018;-52
2023/01/01 12:23:14;;;;;;;11.98;2.70;;;13.40;99.90;;;;;;7375527;19;20833;-52
2023/01/01 12:26:17;;;;;;;14.38;3.75;;;13.30;99.90;;;;;;7372587;19;20030;-53
2023/01/01 12:28:57;;;;;;;12.85;3.10;;;13.20;99.90;;;;;;7374392;19;20547;-53
2023/01/01 12:31:40;;;;;;;11.30;2.53;;;13.20;99.90;;;;;;7369685;19;20018;-58
2023/01/01 12:34:40;;;;;;;13.23;2.72;;;13.10;99.90;;;;;;7374842;19;20117;-52
2023/01/01 12:37:18;;;;;;;11.60;2.20;;;13.20;99.90;;;;;;7374677;19;20568;-53
2023/01/01 12:40:05;;;;;;;12.23;2.50;;;13.10;99.90;;;;;;7373980;19;20014;-51
2023/01/01 12:43:11;;;;;;;12.75;2.30;;;13.10;99.90;;;;;;7374701;19;20499;-59
2023/01/01 12:45:43;;;;;;;11.75;2.92;;;13.00;99.90;;;;;;7371996;19;20436;-58
2023/01/01 12:48:40;;;;;;;13.02;2.47;;;13.00;99.90;;;;;;7376613;19;20062;-53
2023/01/01 12:51:54;;;;;;;13.80;2.08;;;13.00;99.90;;;;;;7373501;19;20025;-51
2023/01/01 12:54:59;;;;;;;13.60;2.72;;;12.90;99.90;;;;;;7372216;19;20831;-59
2023/01/01 12:57:33;;;;;;;12.27;2.65;;;13.00;99.90;;;;;;7372237;19;20459;-58
2023/01/01 13:00:20;;;;;;;10.35;2.80;;;12.90;99.90;;;;;;7372602;19;20474;-58
2023/01/01 13:02:57;;;;;;;9.75;2.40;;;13.00;99.90;;;;;;7372501;19;20014;-58
2023/01/01 13:05:29;;;;;;;10.27;2.90;;;12.90;99.90;;;;;;7372912;19;20022;-58
2023/01/01 13:08:02;;;;;;;14.50;3.08;;;12.90;99.90;;;;;;7374914;19;20022;-51
2023/01/01 13:10:44;;;;;;;14.13;3.17;;;12.90;99.90;;;;;;7369374;19;20022;-59
2023/01/01 13:13:14;;;;;;;10.68;2.63;;;12.90;99.90;;;;;;7370470;19;20018;-53
2023/01/01 13:15:41;;;;;;;14.23;3.25;;;12.90;99.90;;;;;;7367136;19;20018;-49
2023/01/01 13:18:14;;;;;;;13.75;3.50;;;12.90;99.90;;;;;;7369784;19;20018;-53
2023/01/01 13:21:04;;;;;;;13.73;2.70;;;12.90;99.90;;;;;;7362663;19;20014;-52
2023/01/01 13:23:35;;;;;;;13.43;3.45;;;12.90;99.90;;;;;;7367936;19;20037;-52
2023/01/01 13:26:16;;;;;;;16.60;3.30;;;12.80;99.90;;;;;;7371717;19;20050;-53
2023/01/01 13:29:09;;;;;;;13.95;3.33;;;12.80;99.90;;;;;;7369564;19;20057;-58
2023/01/01 13:31:41;;;;;;;12.68;3.03;;;12.80;99.90;;;;;;7368888;19;20014;-59